sensor_id;sensor_type;location;lat;lon;timestamp;P1;durP1;ratioP1;P2;durP2;ratioP2
51296;SDS011;37380;45.186;9.792;2022-12-18T00:01:56;161.77;;;67.70;;
51296;SDS011;37380;45.186;9.792;2022-12-18T00:04:26;126.90;;;66.13;;
51296;SDS011;37380;45.186;9.792;2022-12-18T00:07:00;150.35;;;64.13;;
51296;SDS011;37380;45.186;9.792;2022-12-18T00:09:54;112.53;;;60.08;;
51296;SDS011;37380;45.186;9.792;2022-12-18T00:12:21;116.82;;;60.80;;
51296;SDS011;37380;45.186;9.792;2022-12-18T00:14:48;128.55;;;59.90;;
51296;SDS011;37380;45.186;9.792;2022-12-18T00:17:15;141.05;;;62.85;;
51296;SDS011;37380;45.186;9.792;2022-12-18T00:19:42;125.72;;;63.45;;
51296;SDS011;37380;45.186;9.792;2022-12-18T00:22:09;111.50;;;61.20;;
51296;SDS011;37380;45.186;9.792;2022-12-18T00:24:36;145.82;;;62.92;;
51296;SDS011;37380;45.186;9.792;2022-12-18T00:27:03;134.98;;;63.42;;
51296;SDS011;37380;45.186;9.792;2022-12-18T00:29:31;104.05;;;64.90;;
51296;SDS011;37380;45.186;9.792;2022-12-18T00:31:58;115.18;;;58.00;;
51296;SDS011;37380;45.186;9.792;2022-12-18T00:34:32;147.95;;;66.22;;
51296;SDS011;37380;45.186;9.792;2022-12-18T00:37:34;142.20;;;61.10;;
51296;SDS011;37380;45.186;9.792;2022-12-18T00:40:35;143.52;;;62.58;;
51296;SDS011;37380;45.186;9.792;2022-12-18T00:43:29;137.05;;;63.58;;
51296;SDS011;37380;45.186;9.792;2022-12-18T00:45:56;135.23;;;66.07;;
51296;SDS011;37380;45.186;9.792;2022-12-18T00:48:24;145.85;;;70.93;;
51296;SDS011;37380;45.186;9.792;2022-12-18T00:50:51;147.27;;;66.78;;
51296;SDS011;37380;45.186;9.792;2022-12-18T00:53:18;148.52;;;67.40;;
51296;SDS011;37380;45.186;9.792;2022-12-18T00:55:46;152.25;;;72.60;;
51296;SDS011;37380;45.186;9.792;2022-12-18T00:58:14;136.93;;;71.32;;
51296;SDS011;37380;45.186;9.792;2022-12-18T01:00:43;121.10;;;67.10;;
51296;SDS011;37380;45.186;9.792;2022-12-18T01:03:12;149.35;;;67.40;;
51296;SDS011;37380;45.186;9.792;2022-12-18T01:05:42;141.27;;;72.65;;
51296;SDS011;37380;45.186;9.792;2022-12-18T01:08:16;132.82;;;66.97;;
51296;SDS011;37380;45.186;9.792;2022-12-18T01:11:11;111.30;;;66.47;;
51296;SDS011;37380;45.186;9.792;2022-12-18T01:13:43;133.32;;;68.20;;
51296;SDS011;37380;45.186;9.792;2022-12-18T01:16:11;160.73;;;74.07;;
51296;SDS011;37380;45.186;9.792;2022-12-18T01:18:39;137.35;;;68.63;;
51296;SDS011;37380;45.186;9.792;2022-12-18T01:21:10;135.57;;;70.03;;
51296;SDS011;37380;45.186;9.792;2022-12-18T01:23:46;111.10;;;67.72;;
51296;SDS011;37380;45.186;9.792;2022-12-18T01:26:43;109.80;;;61.03;;
51296;SDS011;37380;45.186;9.792;2022-12-18T01:29:13;110.63;;;63.88;;
51296;SDS011;37380;45.186;9.792;2022-12-18T01:31:40;109.07;;;60.55;;
51296;SDS011;37380;45.186;9.792;2022-12-18T01:34:08;108.50;;;64.38;;
51296;SDS011;37380;45.186;9.792;2022-12-18T01:36:37;115.70;;;64.10;;
51296;SDS011;37380;45.186;9.792;2022-12-18T01:39:12;136.32;;;62.08;;
51296;SDS011;37380;45.186;9.792;2022-12-18T01:42:15;151.05;;;67.88;;
51296;SDS011;37380;45.186;9.792;2022-12-18T01:50:42;125.90;;;62.70;;
51296;SDS011;37380;45.186;9.792;2022-12-18T01:53:11;103.85;;;63.20;;
51296;SDS011;37380;45.186;9.792;2022-12-18T01:55:56;79.78;;;54.67;;
51296;SDS011;37380;45.186;9.792;2022-12-18T01:58:30;93.82;;;55.72;;
51296;SDS011;37380;45.186;9.792;2022-12-18T02:01:05;95.30;;;50.45;;
51296;SDS011;37380;45.186;9.792;2022-12-18T02:03:32;100.15;;;57.40;;
51296;SDS011;37380;45.186;9.792;2022-12-18T02:06:01;95.95;;;56.53;;
51296;SDS011;37380;45.186;9.792;2022-12-18T02:09:25;66.32;;;45.90;;
51296;SDS011;37380;45.186;9.792;2022-12-18T02:17:52;93.43;;;52.03;;
51296;SDS011;37380;45.186;9.792;2022-12-18T02:28:09;75.72;;;45.85;;
51296;SDS011;37380;45.186;9.792;2022-12-18T02:30:40;84.47;;;50.42;;
51296;SDS011;37380;45.186;9.792;2022-12-18T02:33:08;77.43;;;48.80;;
51296;SDS011;37380;45.186;9.792;2022-12-18T02:35:38;106.80;;;50.75;;
51296;SDS011;37380;45.186;9.792;2022-12-18T02:38:14;73.88;;;49.70;;
51296;SDS011;37380;45.186;9.792;2022-12-18T02:41:17;73.60;;;48.80;;
51296;SDS011;37380;45.186;9.792;2022-12-18T02:43:46;80.78;;;46.28;;
51296;SDS011;37380;45.186;9.792;2022-12-18T02:49:12;70.03;;;45.85;;
51296;SDS011;37380;45.186;9.792;2022-12-18T02:54:27;73.85;;;45.65;;
51296;SDS011;37380;45.186;9.792;2022-12-18T02:57:18;64.18;;;46.65;;
51296;SDS011;37380;45.186;9.792;2022-12-18T03:02:38;62.00;;;43.22;;
51296;SDS011;37380;45.186;9.792;2022-12-18T03:05:24;80.63;;;43.53;;
51296;SDS011;37380;45.186;9.792;2022-12-18T03:08:33;68.03;;;45.88;;
51296;SDS011;37380;45.186;9.792;2022-12-18T03:11:54;84.50;;;48.30;;
51296;SDS011;37380;45.186;9.792;2022-12-18T03:14:44;71.35;;;48.17;;
51296;SDS011;37380;45.186;9.792;2022-12-18T03:17:17;83.25;;;49.42;;
51296;SDS011;37380;45.186;9.792;2022-12-18T03:19:47;87.85;;;48.35;;
51296;SDS011;37380;45.186;9.792;2022-12-18T03:22:16;82.85;;;56.00;;
51296;SDS011;37380;45.186;9.792;2022-12-18T03:24:49;100.85;;;62.22;;
51296;SDS011;37380;45.186;9.792;2022-12-18T03:27:18;131.27;;;65.65;;
51296;SDS011;37380;45.186;9.792;2022-12-18T03:29:56;133.10;;;67.75;;
51296;SDS011;37380;45.186;9.792;2022-12-18T03:32:41;108.25;;;64.80;;
51296;SDS011;37380;45.186;9.792;2022-12-18T03:35:31;106.47;;;62.73;;
51296;SDS011;37380;45.186;9.792;2022-12-18T03:38:09;118.55;;;63.95;;
51296;SDS011;37380;45.186;9.792;2022-12-18T03:44:36;96.13;;;57.75;;
51296;SDS011;37380;45.186;9.792;2022-12-18T03:55:17;157.50;;;60.88;;
51296;SDS011;37380;45.186;9.792;2022-12-18T03:58:13;84.90;;;55.05;;
51296;SDS011;37380;45.186;9.792;2022-12-18T04:00:56;107.80;;;54.88;;
51296;SDS011;37380;45.186;9.792;2022-12-18T04:03:27;120.60;;;60.22;;
51296;SDS011;37380;45.186;9.792;2022-12-18T04:05:56;117.03;;;56.22;;
51296;SDS011;37380;45.186;9.792;2022-12-18T04:08:40;79.43;;;51.25;;
51296;SDS011;37380;45.186;9.792;2022-12-18T04:11:43;85.43;;;48.28;;
51296;SDS011;37380;45.186;9.792;2022-12-18T04:14:38;78.38;;;50.88;;
51296;SDS011;37380;45.186;9.792;2022-12-18T04:17:07;71.32;;;46.30;;
51296;SDS011;37380;45.186;9.792;2022-12-18T04:19:34;97.47;;;50.80;;
51296;SDS011;37380;45.186;9.792;2022-12-18T04:22:02;93.78;;;48.97;;
51296;SDS011;37380;45.186;9.792;2022-12-18T04:24:35;79.20;;;48.65;;
51296;SDS011;37380;45.186;9.792;2022-12-18T04:27:10;92.40;;;48.53;;
51296;SDS011;37380;45.186;9.792;2022-12-18T04:29:48;75.60;;;49.83;;
51296;SDS011;37380;45.186;9.792;2022-12-18T04:32:36;87.27;;;48.53;;
51296;SDS011;37380;45.186;9.792;2022-12-18T04:35:03;82.65;;;50.85;;
51296;SDS011;37380;45.186;9.792;2022-12-18T04:37:33;84.90;;;48.15;;
51296;SDS011;37380;45.186;9.792;2022-12-18T04:40:08;72.35;;;44.78;;
51296;SDS011;37380;45.186;9.792;2022-12-18T04:43:03;82.45;;;50.22;;
51296;SDS011;37380;45.186;9.792;2022-12-18T04:45:31;73.40;;;46.50;;
51296;SDS011;37380;45.186;9.792;2022-12-18T04:47:59;64.22;;;46.75;;
51296;SDS011;37380;45.186;9.792;2022-12-18T04:50:27;60.03;;;41.83;;
51296;SDS011;37380;45.186;9.792;2022-12-18T04:52:54;73.22;;;46.35;;
51296;SDS011;37380;45.186;9.792;2022-12-18T04:55:22;64.35;;;45.20;;
51296;SDS011;37380;45.186;9.792;2022-12-18T04:57:49;74.93;;;46.63;;
51296;SDS011;37380;45.186;9.792;2022-12-18T05:00:22;78.93;;;48.00;;
51296;SDS011;37380;45.186;9.792;2022-12-18T05:03:17;73.93;;;47.45;;
51296;SDS011;37380;45.186;9.792;2022-12-18T05:05:44;75.18;;;47.50;;
51296;SDS011;37380;45.186;9.792;2022-12-18T05:08:18;82.57;;;47.72;;
51296;SDS011;37380;45.186;9.792;2022-12-18T05:13:43;68.53;;;43.38;;
51296;SDS011;37380;45.186;9.792;2022-12-18T05:16:12;69.30;;;41.83;;
51296;SDS011;37380;45.186;9.792;2022-12-18T05:18:40;72.32;;;42.63;;
51296;SDS011;37380;45.186;9.792;2022-12-18T05:21:08;72.32;;;41.42;;
51296;SDS011;37380;45.186;9.792;2022-12-18T05:23:35;72.90;;;44.67;;
51296;SDS011;37380;45.186;9.792;2022-12-18T05:26:04;67.18;;;41.13;;
51296;SDS011;37380;45.186;9.792;2022-12-18T05:28:33;69.95;;;42.38;;
51296;SDS011;37380;45.186;9.792;2022-12-18T05:31:01;65.50;;;40.95;;
51296;SDS011;37380;45.186;9.792;2022-12-18T05:34:01;57.37;;;36.17;;
51296;SDS011;37380;45.186;9.792;2022-12-18T05:36:56;62.33;;;39.58;;
51296;SDS011;37380;45.186;9.792;2022-12-18T05:39:57;60.17;;;37.92;;
51296;SDS011;37380;45.186;9.792;2022-12-18T05:42:52;60.30;;;35.83;;
51296;SDS011;37380;45.186;9.792;2022-12-18T05:45:19;55.83;;;37.25;;
51296;SDS011;37380;45.186;9.792;2022-12-18T05:47:46;74.35;;;37.72;;
51296;SDS011;37380;45.186;9.792;2022-12-18T05:50:14;64.93;;;38.65;;
51296;SDS011;37380;45.186;9.792;2022-12-18T05:52:41;87.50;;;42.75;;
51296;SDS011;37380;45.186;9.792;2022-12-18T05:55:08;67.40;;;41.85;;
51296;SDS011;37380;45.186;9.792;2022-12-18T05:57:35;66.50;;;37.03;;
51296;SDS011;37380;45.186;9.792;2022-12-18T06:00:05;60.90;;;36.42;;
51296;SDS011;37380;45.186;9.792;2022-12-18T06:02:37;78.70;;;40.95;;
51296;SDS011;37380;45.186;9.792;2022-12-18T06:05:05;75.55;;;39.58;;
51296;SDS011;37380;45.186;9.792;2022-12-18T06:07:39;71.97;;;43.20;;
51296;SDS011;37380;45.186;9.792;2022-12-18T06:10:36;77.35;;;40.13;;
51296;SDS011;37380;45.186;9.792;2022-12-18T06:13:04;72.90;;;37.78;;
51296;SDS011;37380;45.186;9.792;2022-12-18T06:15:32;76.47;;;40.35;;
51296;SDS011;37380;45.186;9.792;2022-12-18T06:18:03;67.60;;;39.30;;
51296;SDS011;37380;45.186;9.792;2022-12-18T06:20:31;68.00;;;39.38;;
51296;SDS011;37380;45.186;9.792;2022-12-18T06:23:13;75.30;;;41.45;;
51296;SDS011;37380;45.186;9.792;2022-12-18T06:25:40;87.75;;;41.95;;
51296;SDS011;37380;45.186;9.792;2022-12-18T06:28:07;57.30;;;38.38;;
51296;SDS011;37380;45.186;9.792;2022-12-18T06:30:36;65.70;;;39.05;;
51296;SDS011;37380;45.186;9.792;2022-12-18T06:33:03;78.72;;;43.47;;
51296;SDS011;37380;45.186;9.792;2022-12-18T06:35:31;68.70;;;43.50;;
51296;SDS011;37380;45.186;9.792;2022-12-18T06:38:04;68.00;;;39.47;;
51296;SDS011;37380;45.186;9.792;2022-12-18T06:41:09;60.78;;;37.85;;
51296;SDS011;37380;45.186;9.792;2022-12-18T06:44:11;51.22;;;36.40;;
51296;SDS011;37380;45.186;9.792;2022-12-18T06:47:12;55.92;;;35.50;;
51296;SDS011;37380;45.186;9.792;2022-12-18T06:50:07;51.08;;;32.88;;
51296;SDS011;37380;45.186;9.792;2022-12-18T06:52:34;55.42;;;33.63;;
51296;SDS011;37380;45.186;9.792;2022-12-18T06:55:01;44.50;;;33.28;;
51296;SDS011;37380;45.186;9.792;2022-12-18T06:57:28;53.33;;;36.38;;
51296;SDS011;37380;45.186;9.792;2022-12-18T06:59:56;55.88;;;36.03;;
51296;SDS011;37380;45.186;9.792;2022-12-18T07:02:23;53.20;;;34.65;;
51296;SDS011;37380;45.186;9.792;2022-12-18T07:04:50;108.93;;;39.47;;
51296;SDS011;37380;45.186;9.792;2022-12-18T07:07:24;74.95;;;36.42;;
51296;SDS011;37380;45.186;9.792;2022-12-18T07:10:18;88.80;;;37.55;;
51296;SDS011;37380;45.186;9.792;2022-12-18T07:12:45;149.43;;;43.97;;
51296;SDS011;37380;45.186;9.792;2022-12-18T07:15:12;57.50;;;37.78;;
51296;SDS011;37380;45.186;9.792;2022-12-18T07:17:39;66.03;;;38.20;;
51296;SDS011;37380;45.186;9.792;2022-12-18T07:20:06;135.02;;;51.35;;
51296;SDS011;37380;45.186;9.792;2022-12-18T07:22:34;108.43;;;45.22;;
51296;SDS011;37380;45.186;9.792;2022-12-18T07:25:01;108.45;;;44.38;;
51296;SDS011;37380;45.186;9.792;2022-12-18T07:27:29;114.82;;;46.40;;
51296;SDS011;37380;45.186;9.792;2022-12-18T07:29:56;63.97;;;40.25;;
51296;SDS011;37380;45.186;9.792;2022-12-18T07:32:30;101.78;;;49.50;;
51296;SDS011;37380;45.186;9.792;2022-12-18T07:35:25;111.60;;;54.00;;
51296;SDS011;37380;45.186;9.792;2022-12-18T07:37:52;109.05;;;47.78;;
51296;SDS011;37380;45.186;9.792;2022-12-18T07:40:25;102.70;;;43.63;;
51296;SDS011;37380;45.186;9.792;2022-12-18T07:43:20;78.45;;;40.72;;
51296;SDS011;37380;45.186;9.792;2022-12-18T07:45:48;88.95;;;44.72;;
51296;SDS011;37380;45.186;9.792;2022-12-18T07:48:17;68.03;;;41.75;;
51296;SDS011;37380;45.186;9.792;2022-12-18T07:50:44;70.75;;;39.45;;
51296;SDS011;37380;45.186;9.792;2022-12-18T07:53:11;69.15;;;41.83;;
51296;SDS011;37380;45.186;9.792;2022-12-18T07:55:38;74.03;;;44.10;;
51296;SDS011;37380;45.186;9.792;2022-12-18T07:58:25;66.60;;;39.03;;
51296;SDS011;37380;45.186;9.792;2022-12-18T08:00:52;82.28;;;40.00;;
51296;SDS011;37380;45.186;9.792;2022-12-18T08:03:19;64.28;;;39.50;;
51296;SDS011;37380;45.186;9.792;2022-12-18T08:05:47;61.55;;;40.47;;
51296;SDS011;37380;45.186;9.792;2022-12-18T08:08:22;66.93;;;38.15;;
51296;SDS011;37380;45.186;9.792;2022-12-18T08:11:23;85.22;;;41.08;;
51296;SDS011;37380;45.186;9.792;2022-12-18T08:14:19;63.88;;;36.55;;
51296;SDS011;37380;45.186;9.792;2022-12-18T08:16:53;55.35;;;36.08;;
51296;SDS011;37380;45.186;9.792;2022-12-18T08:19:47;51.83;;;38.42;;
51296;SDS011;37380;45.186;9.792;2022-12-18T08:22:14;65.43;;;39.05;;
51296;SDS011;37380;45.186;9.792;2022-12-18T08:24:41;56.45;;;37.35;;
51296;SDS011;37380;45.186;9.792;2022-12-18T08:27:08;60.10;;;37.08;;
51296;SDS011;37380;45.186;9.792;2022-12-18T08:29:55;59.25;;;38.85;;
51296;SDS011;37380;45.186;9.792;2022-12-18T08:32:23;48.70;;;35.60;;
51296;SDS011;37380;45.186;9.792;2022-12-18T08:34:51;63.30;;;41.25;;
51296;SDS011;37380;45.186;9.792;2022-12-18T08:37:18;52.50;;;32.75;;
51296;SDS011;37380;45.186;9.792;2022-12-18T08:39:51;58.47;;;35.25;;
51296;SDS011;37380;45.186;9.792;2022-12-18T08:42:46;55.35;;;34.78;;
51296;SDS011;37380;45.186;9.792;2022-12-18T08:45:33;57.63;;;33.55;;
51296;SDS011;37380;45.186;9.792;2022-12-18T08:48:00;53.80;;;34.80;;
51296;SDS011;37380;45.186;9.792;2022-12-18T08:50:28;49.05;;;33.13;;
51296;SDS011;37380;45.186;9.792;2022-12-18T08:52:55;53.83;;;36.70;;
51296;SDS011;37380;45.186;9.792;2022-12-18T08:55:22;51.08;;;35.60;;
51296;SDS011;37380;45.186;9.792;2022-12-18T08:57:49;59.22;;;36.70;;
51296;SDS011;37380;45.186;9.792;2022-12-18T09:00:17;54.08;;;33.78;;
51296;SDS011;37380;45.186;9.792;2022-12-18T09:02:50;56.80;;;33.03;;
51296;SDS011;37380;45.186;9.792;2022-12-18T09:05:45;45.33;;;31.17;;
51296;SDS011;37380;45.186;9.792;2022-12-18T09:08:20;52.83;;;31.80;;
51296;SDS011;37380;45.186;9.792;2022-12-18T09:11:15;49.88;;;32.03;;
51296;SDS011;37380;45.186;9.792;2022-12-18T09:13:47;52.95;;;35.92;;
51296;SDS011;37380;45.186;9.792;2022-12-18T09:16:14;54.30;;;36.38;;
51296;SDS011;37380;45.186;9.792;2022-12-18T09:18:41;49.88;;;31.05;;
51296;SDS011;37380;45.186;9.792;2022-12-18T09:21:13;47.05;;;33.22;;
51296;SDS011;37380;45.186;9.792;2022-12-18T09:23:49;54.80;;;32.75;;
51296;SDS011;37380;45.186;9.792;2022-12-18T09:26:17;54.95;;;33.10;;
51296;SDS011;37380;45.186;9.792;2022-12-18T09:28:44;57.83;;;32.55;;
51296;SDS011;37380;45.186;9.792;2022-12-18T09:31:11;44.42;;;31.25;;
51296;SDS011;37380;45.186;9.792;2022-12-18T09:33:41;62.97;;;34.90;;
51296;SDS011;37380;45.186;9.792;2022-12-18T09:36:14;57.83;;;35.08;;
51296;SDS011;37380;45.186;9.792;2022-12-18T09:38:50;52.40;;;32.35;;
51296;SDS011;37380;45.186;9.792;2022-12-18T09:41:55;54.22;;;32.10;;
51296;SDS011;37380;45.186;9.792;2022-12-18T09:44:53;58.92;;;41.22;;
51296;SDS011;37380;45.186;9.792;2022-12-18T09:47:26;60.40;;;38.38;;
51296;SDS011;37380;45.186;9.792;2022-12-18T09:50:05;60.50;;;37.15;;
51296;SDS011;37380;45.186;9.792;2022-12-18T09:53:22;50.92;;;33.22;;
51296;SDS011;37380;45.186;9.792;2022-12-18T09:55:54;52.97;;;35.30;;
51296;SDS011;37380;45.186;9.792;2022-12-18T10:01:07;60.50;;;33.20;;
51296;SDS011;37380;45.186;9.792;2022-12-18T10:03:38;62.47;;;38.97;;
51296;SDS011;37380;45.186;9.792;2022-12-18T10:06:18;60.17;;;38.38;;
51296;SDS011;37380;45.186;9.792;2022-12-18T10:09:32;58.30;;;39.65;;
51296;SDS011;37380;45.186;9.792;2022-12-18T10:12:08;62.70;;;37.08;;
51296;SDS011;37380;45.186;9.792;2022-12-18T10:26:02;59.95;;;35.20;;
51296;SDS011;37380;45.186;9.792;2022-12-18T10:28:30;71.10;;;40.97;;
51296;SDS011;37380;45.186;9.792;2022-12-18T10:30:58;60.30;;;39.20;;
51296;SDS011;37380;45.186;9.792;2022-12-18T10:33:29;61.67;;;40.50;;
51296;SDS011;37380;45.186;9.792;2022-12-18T10:36:05;52.50;;;37.03;;
51296;SDS011;37380;45.186;9.792;2022-12-18T10:39:20;53.13;;;35.40;;
51296;SDS011;37380;45.186;9.792;2022-12-18T10:42:18;48.65;;;30.70;;
51296;SDS011;37380;45.186;9.792;2022-12-18T10:44:46;55.80;;;36.45;;
51296;SDS011;37380;45.186;9.792;2022-12-18T10:47:28;46.60;;;36.90;;
51296;SDS011;37380;45.186;9.792;2022-12-18T10:49:56;53.95;;;36.20;;
51296;SDS011;37380;45.186;9.792;2022-12-18T10:52:24;59.25;;;34.80;;
51296;SDS011;37380;45.186;9.792;2022-12-18T10:54:56;61.58;;;36.33;;
51296;SDS011;37380;45.186;9.792;2022-12-18T10:57:35;51.47;;;32.00;;
51296;SDS011;37380;45.186;9.792;2022-12-18T11:03:44;57.15;;;41.03;;
51296;SDS011;37380;45.186;9.792;2022-12-18T11:09:59;65.32;;;41.55;;
51296;SDS011;37380;45.186;9.792;2022-12-18T11:12:46;69.60;;;41.78;;
51296;SDS011;37380;45.186;9.792;2022-12-18T11:15:19;64.50;;;40.95;;
51296;SDS011;37380;45.186;9.792;2022-12-18T11:17:48;65.95;;;42.00;;
51296;SDS011;37380;45.186;9.792;2022-12-18T11:20:36;58.53;;;41.30;;
51296;SDS011;37380;45.186;9.792;2022-12-18T11:23:23;56.95;;;38.67;;
51296;SDS011;37380;45.186;9.792;2022-12-18T11:25:52;64.55;;;37.28;;
51296;SDS011;37380;45.186;9.792;2022-12-18T11:33:56;59.33;;;38.75;;
51296;SDS011;37380;45.186;9.792;2022-12-18T11:36:45;58.20;;;38.42;;
51296;SDS011;37380;45.186;9.792;2022-12-18T11:44:58;60.97;;;40.17;;
51296;SDS011;37380;45.186;9.792;2022-12-18T11:50:19;63.42;;;37.38;;
51296;SDS011;37380;45.186;9.792;2022-12-18T12:01:21;68.65;;;42.45;;
51296;SDS011;37380;45.186;9.792;2022-12-18T12:07:21;53.33;;;36.20;;
51296;SDS011;37380;45.186;9.792;2022-12-18T12:10:32;60.47;;;40.78;;
51296;SDS011;37380;45.186;9.792;2022-12-18T12:16:50;56.40;;;38.10;;
51296;SDS011;37380;45.186;9.792;2022-12-18T12:22:03;60.30;;;38.00;;
51296;SDS011;37380;45.186;9.792;2022-12-18T12:24:54;58.78;;;37.88;;
51296;SDS011;37380;45.186;9.792;2022-12-18T12:27:36;89.90;;;58.55;;
51296;SDS011;37380;45.186;9.792;2022-12-18T12:33:40;62.03;;;39.13;;
51296;SDS011;37380;45.186;9.792;2022-12-18T12:39:23;65.22;;;40.88;;
51296;SDS011;37380;45.186;9.792;2022-12-18T12:51:21;60.45;;;37.10;;
51296;SDS011;37380;45.186;9.792;2022-12-18T12:54:26;57.13;;;37.97;;
51296;SDS011;37380;45.186;9.792;2022-12-18T13:10:53;58.60;;;38.45;;
51296;SDS011;37380;45.186;9.792;2022-12-18T13:14:12;56.50;;;41.88;;
51296;SDS011;37380;45.186;9.792;2022-12-18T13:16:48;58.30;;;39.50;;
51296;SDS011;37380;45.186;9.792;2022-12-18T13:19:22;54.20;;;37.67;;
51296;SDS011;37380;45.186;9.792;2022-12-18T13:21:53;54.97;;;35.90;;
51296;SDS011;37380;45.186;9.792;2022-12-18T13:24:25;53.97;;;35.33;;
51296;SDS011;37380;45.186;9.792;2022-12-18T13:26:56;57.92;;;40.70;;
51296;SDS011;37380;45.186;9.792;2022-12-18T13:29:43;66.70;;;39.25;;
51296;SDS011;37380;45.186;9.792;2022-12-18T13:32:19;59.30;;;39.10;;
51296;SDS011;37380;45.186;9.792;2022-12-18T13:37:55;59.67;;;39.25;;
51296;SDS011;37380;45.186;9.792;2022-12-18T13:40:59;57.45;;;37.55;;
51296;SDS011;37380;45.186;9.792;2022-12-18T13:43:56;52.47;;;35.97;;
51296;SDS011;37380;45.186;9.792;2022-12-18T13:46:42;54.15;;;36.42;;
51296;SDS011;37380;45.186;9.792;2022-12-18T13:51:43;61.30;;;36.97;;
51296;SDS011;37380;45.186;9.792;2022-12-18T13:54:25;64.03;;;37.42;;
51296;SDS011;37380;45.186;9.792;2022-12-18T13:57:25;61.60;;;40.72;;
51296;SDS011;37380;45.186;9.792;2022-12-18T14:02:59;45.88;;;35.53;;
51296;SDS011;37380;45.186;9.792;2022-12-18T14:05:34;58.25;;;39.45;;
51296;SDS011;37380;45.186;9.792;2022-12-18T14:11:45;54.10;;;38.00;;
51296;SDS011;37380;45.186;9.792;2022-12-18T14:15:00;60.63;;;38.70;;
51296;SDS011;37380;45.186;9.792;2022-12-18T14:17:27;66.15;;;41.80;;
51296;SDS011;37380;45.186;9.792;2022-12-18T14:19:56;59.13;;;39.65;;
51296;SDS011;37380;45.186;9.792;2022-12-18T14:22:24;61.58;;;40.60;;
51296;SDS011;37380;45.186;9.792;2022-12-18T14:25:13;68.40;;;38.78;;
51296;SDS011;37380;45.186;9.792;2022-12-18T14:28:14;52.33;;;36.25;;
51296;SDS011;37380;45.186;9.792;2022-12-18T14:30:43;59.35;;;40.53;;
51296;SDS011;37380;45.186;9.792;2022-12-18T14:33:12;66.05;;;41.00;;
51296;SDS011;37380;45.186;9.792;2022-12-18T14:35:41;58.85;;;40.20;;
51296;SDS011;37380;45.186;9.792;2022-12-18T14:40:51;67.20;;;45.40;;
51296;SDS011;37380;45.186;9.792;2022-12-18T14:43:33;66.57;;;42.13;;
51296;SDS011;37380;45.186;9.792;2022-12-18T14:49:00;78.43;;;45.45;;
51296;SDS011;37380;45.186;9.792;2022-12-18T14:51:33;64.55;;;40.80;;
51296;SDS011;37380;45.186;9.792;2022-12-18T14:54:02;69.82;;;42.63;;
51296;SDS011;37380;45.186;9.792;2022-12-18T14:56:36;65.65;;;45.28;;
51296;SDS011;37380;45.186;9.792;2022-12-18T14:59:13;65.07;;;42.67;;
51296;SDS011;37380;45.186;9.792;2022-12-18T15:04:28;79.88;;;45.67;;
51296;SDS011;37380;45.186;9.792;2022-12-18T15:07:11;66.15;;;44.00;;
51296;SDS011;37380;45.186;9.792;2022-12-18T15:13:09;76.07;;;45.28;;
51296;SDS011;37380;45.186;9.792;2022-12-18T15:15:47;65.25;;;43.47;;
51296;SDS011;37380;45.186;9.792;2022-12-18T15:18:16;77.57;;;46.28;;
51296;SDS011;37380;45.186;9.792;2022-12-18T15:20:48;73.57;;;46.90;;
51296;SDS011;37380;45.186;9.792;2022-12-18T15:23:18;69.55;;;43.70;;
51296;SDS011;37380;45.186;9.792;2022-12-18T15:25:47;70.57;;;45.45;;
51296;SDS011;37380;45.186;9.792;2022-12-18T15:28:34;74.25;;;49.83;;
51296;SDS011;37380;45.186;9.792;2022-12-18T15:33:34;70.43;;;43.38;;
51296;SDS011;37380;45.186;9.792;2022-12-18T15:36:04;65.10;;;41.33;;
51296;SDS011;37380;45.186;9.792;2022-12-18T15:38:35;72.35;;;42.63;;
51296;SDS011;37380;45.186;9.792;2022-12-18T15:41:02;75.47;;;43.65;;
51296;SDS011;37380;45.186;9.792;2022-12-18T15:43:41;78.13;;;46.72;;
51296;SDS011;37380;45.186;9.792;2022-12-18T15:46:35;61.10;;;39.90;;
51296;SDS011;37380;45.186;9.792;2022-12-18T15:49:02;70.45;;;42.58;;
51296;SDS011;37380;45.186;9.792;2022-12-18T15:51:36;71.90;;;46.00;;
51296;SDS011;37380;45.186;9.792;2022-12-18T15:54:32;76.43;;;44.75;;
51296;SDS011;37380;45.186;9.792;2022-12-18T15:57:25;61.47;;;40.45;;
51296;SDS011;37380;45.186;9.792;2022-12-18T16:00:19;68.68;;;43.97;;
51296;SDS011;37380;45.186;9.792;2022-12-18T16:02:46;83.05;;;48.17;;
51296;SDS011;37380;45.186;9.792;2022-12-18T16:05:22;87.25;;;52.67;;
51296;SDS011;37380;45.186;9.792;2022-12-18T16:08:24;76.97;;;50.85;;
51296;SDS011;37380;45.186;9.792;2022-12-18T16:11:28;85.60;;;54.92;;
51296;SDS011;37380;45.186;9.792;2022-12-18T16:14:27;77.72;;;50.13;;
51296;SDS011;37380;45.186;9.792;2022-12-18T16:16:57;90.20;;;55.88;;
51296;SDS011;37380;45.186;9.792;2022-12-18T16:19:27;85.40;;;50.90;;
51296;SDS011;37380;45.186;9.792;2022-12-18T16:21:55;83.75;;;55.55;;
51296;SDS011;37380;45.186;9.792;2022-12-18T16:24:27;105.65;;;63.58;;
51296;SDS011;37380;45.186;9.792;2022-12-18T16:26:57;101.13;;;62.67;;
51296;SDS011;37380;45.186;9.792;2022-12-18T16:29:26;110.30;;;65.10;;
51296;SDS011;37380;45.186;9.792;2022-12-18T16:31:55;99.20;;;61.83;;
51296;SDS011;37380;45.186;9.792;2022-12-18T16:34:24;119.93;;;69.15;;
51296;SDS011;37380;45.186;9.792;2022-12-18T16:36:55;101.50;;;63.92;;
51296;SDS011;37380;45.186;9.792;2022-12-18T16:39:31;102.00;;;61.15;;
51296;SDS011;37380;45.186;9.792;2022-12-18T16:42:42;116.72;;;62.15;;
51296;SDS011;37380;45.186;9.792;2022-12-18T16:45:36;99.85;;;57.65;;
51296;SDS011;37380;45.186;9.792;2022-12-18T16:48:03;107.70;;;59.28;;
51296;SDS011;37380;45.186;9.792;2022-12-18T16:50:30;91.32;;;55.72;;
51296;SDS011;37380;45.186;9.792;2022-12-18T16:52:58;97.53;;;56.97;;
51296;SDS011;37380;45.186;9.792;2022-12-18T16:55:25;100.60;;;53.95;;
51296;SDS011;37380;45.186;9.792;2022-12-18T16:57:53;86.10;;;52.55;;
51296;SDS011;37380;45.186;9.792;2022-12-18T17:00:20;98.45;;;53.13;;
51296;SDS011;37380;45.186;9.792;2022-12-18T17:02:47;91.40;;;53.97;;
51296;SDS011;37380;45.186;9.792;2022-12-18T17:05:15;78.57;;;51.00;;
51296;SDS011;37380;45.186;9.792;2022-12-18T17:07:49;86.53;;;50.55;;
51296;SDS011;37380;45.186;9.792;2022-12-18T17:10:50;70.22;;;46.95;;
51296;SDS011;37380;45.186;9.792;2022-12-18T17:13:44;86.10;;;51.40;;
51296;SDS011;37380;45.186;9.792;2022-12-18T17:16:11;85.50;;;50.88;;
51296;SDS011;37380;45.186;9.792;2022-12-18T17:18:39;83.68;;;51.17;;
51296;SDS011;37380;45.186;9.792;2022-12-18T17:21:06;78.65;;;47.78;;
51296;SDS011;37380;45.186;9.792;2022-12-18T17:23:35;87.03;;;48.40;;
51296;SDS011;37380;45.186;9.792;2022-12-18T17:26:03;83.18;;;48.35;;
51296;SDS011;37380;45.186;9.792;2022-12-18T17:28:39;67.50;;;44.42;;
51296;SDS011;37380;45.186;9.792;2022-12-18T17:31:41;71.93;;;44.63;;
51296;SDS011;37380;45.186;9.792;2022-12-18T17:34:36;77.95;;;48.80;;
51296;SDS011;37380;45.186;9.792;2022-12-18T17:37:03;79.22;;;50.67;;
51296;SDS011;37380;45.186;9.792;2022-12-18T17:39:30;98.93;;;54.17;;
51296;SDS011;37380;45.186;9.792;2022-12-18T17:41:59;86.95;;;49.95;;
51296;SDS011;37380;45.186;9.792;2022-12-18T17:44:26;76.97;;;47.28;;
51296;SDS011;37380;45.186;9.792;2022-12-18T17:46:54;76.53;;;52.53;;